Darstellungsparameter: Aktuell verwendete Einstellungen:
Skalierung der Graphiken ... ?
xyx+y,   Skalierungsfaktor:      Skalierung: Modus: x, Faktor: 1
Darstellungszeitraum ... ?
Vom - - bis: - -   Zeitraum: 14.05.2016 - 14.05.2016
Min/Max/Avg-Anzeige ... ?
Zeige MMA aktuell
Zeige MMA Monat
Zeige MMA alles
Zeige --A aktuell
Zeige --A Monat
Zeige --A alles
Keine MMA-Anzeige
MMA:
Keine MMA-Graphiken
MMA-Basis: 14.05.2016 - 14.05.2016
Quicknavigation für Darstellung... ?
Tage:      1T, 2T, 3T, 5T -1T -2T -3T -5T +1T +2T +3T +5T
Wochen: 1W, 2W, 3W -1W -2W -3W +1W +2W +3W
Monate: 1M, 3M, 6M -1M -3M -6M +1M +3M +6M
Jahre:    1J, 3J, 5J, 10J -1J -3J -5J -10J +1J +3J +5J +10J
Nutze für die Darstellung ... ?
Originaldaten oder Mittelwerte auf ...
Stundenbasis Tagesbasis Wochenbasis
Monatsbasis Jahresbasis      Datenbasis: Original-Daten
Darstellen als:
Statistik (Auto) Statistik J:M      Darstellung:
Zur Graphik,    zurück zur Übersicht aller Sensoren.
 
Tabellarische Datenbersicht: ?
 
Sensor: Nr:Datum:Temp:Feuchte:Taupunkt:
Aussen-T/F 1 14-05-2016 00:00:00 11.6 C 96 % 10.98 C
2 14-05-2016 00:05:00 11.6 C 96 % 10.98 C
3 14-05-2016 00:10:00 11.6 C 96 % 10.98 C
4 14-05-2016 00:15:00 11.4 C 95 % 10.63 C
5 14-05-2016 00:20:00 11.4 C 96 % 10.79 C
6 14-05-2016 00:25:00 11.3 C 96 % 10.69 C
7 14-05-2016 00:30:00 11.2 C 96 % 10.59 C
8 14-05-2016 00:35:00 11.2 C 95 % 10.43 C
9 14-05-2016 00:40:00 11.1 C 96 % 10.49 C
10 14-05-2016 00:45:00 11.1 C 96 % 10.49 C
11 14-05-2016 00:50:00 11 C 96 % 10.39 C
12 14-05-2016 00:55:00 10.9 C 96 % 10.29 C
13 14-05-2016 01:00:00 10.8 C 95 % 10.03 C
14 14-05-2016 01:05:00 10.7 C 96 % 10.09 C
15 14-05-2016 01:10:00 10.7 C 96 % 10.09 C
16 14-05-2016 01:15:00 10.7 C 96 % 10.09 C
17 14-05-2016 01:20:00 10.7 C 96 % 10.09 C
18 14-05-2016 01:25:00 10.7 C 96 % 10.09 C
19 14-05-2016 01:30:00 10.7 C 96 % 10.09 C
20 14-05-2016 01:35:00 10.7 C 96 % 10.09 C
21 14-05-2016 01:40:00 10.7 C 96 % 10.09 C
22 14-05-2016 01:45:00 10.7 C 96 % 10.09 C
23 14-05-2016 01:50:00 10.6 C 96 % 9.99 C
24 14-05-2016 01:55:00 10.6 C 96 % 9.99 C
25 14-05-2016 02:00:00 10.6 C 96 % 9.99 C
Sensor: Nr:Datum:Temp:Feuchte:Taupunkt:
Aussen-T/F 26 14-05-2016 02:05:00 10.6 C 96 % 9.99 C
27 14-05-2016 02:10:00 10.6 C 96 % 9.99 C
28 14-05-2016 02:15:00 10.6 C 96 % 9.99 C
29 14-05-2016 02:20:00 10.5 C 96 % 9.89 C
30 14-05-2016 02:25:00 10.5 C 96 % 9.89 C
31 14-05-2016 02:30:00 10.6 C 96 % 9.99 C
32 14-05-2016 02:35:00 10.6 C 96 % 9.99 C
33 14-05-2016 02:40:00 10.5 C 96 % 9.89 C
34 14-05-2016 02:45:00 10.5 C 96 % 9.89 C
35 14-05-2016 02:50:00 10.6 C 96 % 9.99 C
36 14-05-2016 02:55:00 10.6 C 96 % 9.99 C
37 14-05-2016 03:00:00 10.6 C 96 % 9.99 C
38 14-05-2016 03:05:00 10.5 C 95 % 9.73 C
39 14-05-2016 03:10:00 10.4 C 95 % 9.63 C
40 14-05-2016 03:15:00 10.3 C 94 % 9.38 C
41 14-05-2016 03:20:00 10.3 C 93 % 9.22 C
42 14-05-2016 03:25:00 10.3 C 93 % 9.22 C
43 14-05-2016 03:30:00 10.2 C 93 % 9.12 C
44 14-05-2016 03:35:00 10.1 C 92 % 8.86 C
45 14-05-2016 03:40:00 10 C 91 % 8.6 C
46 14-05-2016 03:45:00 10.1 C 91 % 8.7 C
47 14-05-2016 03:50:00 10.1 C 91 % 8.7 C
48 14-05-2016 03:55:00 10 C 91 % 8.6 C
49 14-05-2016 04:00:00 9.9 C 89 % 8.17 C
50 14-05-2016 04:05:00 10.1 C 89 % 8.37 C
Sensor: Nr:Datum:Temp:Feuchte:Taupunkt:
Aussen-T/F 51 14-05-2016 04:10:00 10.1 C 87 % 8.04 C
52 14-05-2016 04:15:00 10.1 C 87 % 8.04 C
53 14-05-2016 04:20:00 10.1 C 87 % 8.04 C
54 14-05-2016 04:25:00 10.1 C 86 % 7.87 C
55 14-05-2016 04:30:00 10 C 86 % 7.77 C
56 14-05-2016 04:35:00 9.9 C 88 % 8.01 C
57 14-05-2016 04:40:00 9.8 C 86 % 7.57 C
58 14-05-2016 04:45:00 9.9 C 85 % 7.5 C
59 14-05-2016 04:50:00 9.9 C 85 % 7.5 C
60 14-05-2016 04:55:00 9.9 C 85 % 7.5 C
61 14-05-2016 05:00:00 9.8 C 85 % 7.4 C
62 14-05-2016 05:05:00 9.8 C 85 % 7.4 C
63 14-05-2016 05:10:00 9.7 C 85 % 7.3 C
64 14-05-2016 05:15:00 9.7 C 86 % 7.47 C
65 14-05-2016 05:20:00 9.6 C 86 % 7.38 C
66 14-05-2016 05:25:00 9.6 C 85 % 7.21 C
67 14-05-2016 05:30:00 9.6 C 86 % 7.38 C
68 14-05-2016 05:35:00 9.5 C 86 % 7.28 C
69 14-05-2016 05:40:00 9.4 C 86 % 7.18 C
70 14-05-2016 05:45:00 9.4 C 86 % 7.18 C
71 14-05-2016 05:50:00 9.4 C 86 % 7.18 C
72 14-05-2016 05:55:00 9.3 C 87 % 7.25 C
73 14-05-2016 06:00:00 9.3 C 86 % 7.08 C
74 14-05-2016 06:05:00 9.3 C 86 % 7.08 C
75 14-05-2016 06:10:00 9.3 C 87 % 7.25 C
Sensor: Nr:Datum:Temp:Feuchte:Taupunkt:
Aussen-T/F 76 14-05-2016 06:15:00 9.3 C 86 % 7.08 C
77 14-05-2016 06:20:00 9.3 C 85 % 6.91 C
78 14-05-2016 06:25:00 9.3 C 85 % 6.91 C
79 14-05-2016 06:30:00 9.4 C 85 % 7.01 C
80 14-05-2016 06:35:00 9.3 C 85 % 6.91 C
81 14-05-2016 06:40:00 9.3 C 85 % 6.91 C
82 14-05-2016 06:45:00 9.3 C 84 % 6.74 C
83 14-05-2016 06:50:00 9.3 C 85 % 6.91 C
84 14-05-2016 06:55:00 9.3 C 84 % 6.74 C
85 14-05-2016 07:00:00 9.3 C 84 % 6.74 C
86 14-05-2016 07:05:00 9.2 C 83 % 6.47 C
87 14-05-2016 07:10:00 9.2 C 81 % 6.11 C
88 14-05-2016 07:15:00 9.2 C 81 % 6.11 C
89 14-05-2016 07:20:00 9.2 C 81 % 6.11 C
90 14-05-2016 07:25:00 9.2 C 82 % 6.29 C
91 14-05-2016 07:30:00 9.2 C 82 % 6.29 C
92 14-05-2016 07:35:00 9.2 C 83 % 6.47 C
93 14-05-2016 07:40:00 9.2 C 83 % 6.47 C
94 14-05-2016 07:45:00 9.2 C 84 % 6.64 C
95 14-05-2016 07:50:00 9.1 C 83 % 6.37 C
96 14-05-2016 07:55:00 9.1 C 83 % 6.37 C
97 14-05-2016 08:00:00 9 C 83 % 6.27 C
98 14-05-2016 08:05:00 9 C 84 % 6.45 C
99 14-05-2016 08:10:00 9 C 84 % 6.45 C
100 14-05-2016 08:15:00 9 C 83 % 6.27 C
Sensor: Nr:Datum:Temp:Feuchte:Taupunkt:
Aussen-T/F 101 14-05-2016 08:20:00 9.1 C 83 % 6.37 C
102 14-05-2016 08:25:00 9.1 C 84 % 6.54 C
103 14-05-2016 08:30:00 9.1 C 83 % 6.37 C
104 14-05-2016 08:35:00 9.1 C 83 % 6.37 C
105 14-05-2016 08:40:00 9.1 C 84 % 6.54 C
106 14-05-2016 08:45:00 9.2 C 83 % 6.47 C
107 14-05-2016 08:50:00 9.2 C 82 % 6.29 C
108 14-05-2016 08:55:00 9.2 C 81 % 6.11 C
109 14-05-2016 09:00:00 9.2 C 81 % 6.11 C
110 14-05-2016 09:05:00 9.2 C 80 % 5.94 C
111 14-05-2016 09:10:00 9.2 C 80 % 5.94 C
112 14-05-2016 09:15:00 9.2 C 79 % 5.75 C
113 14-05-2016 09:20:00 9.2 C 78 % 5.57 C
114 14-05-2016 09:25:00 9.2 C 78 % 5.57 C
115 14-05-2016 09:30:00 9.3 C 78 % 5.67 C
116 14-05-2016 09:35:00 9.3 C 78 % 5.67 C
117 14-05-2016 09:40:00 9.4 C 76 % 5.39 C
118 14-05-2016 09:45:00 9.5 C 75 % 5.3 C
119 14-05-2016 09:50:00 9.6 C 74 % 5.2 C
120 14-05-2016 09:55:00 9.7 C 73 % 5.1 C
121 14-05-2016 10:00:00 9.8 C 71 % 4.8 C
122 14-05-2016 10:05:00 9.8 C 68 % 4.18 C
123 14-05-2016 10:10:00 9.8 C 69 % 4.39 C
124 14-05-2016 10:15:00 9.8 C 68 % 4.18 C
125 14-05-2016 10:20:00 9.8 C 70 % 4.6 C
Sensor: Nr:Datum:Temp:Feuchte:Taupunkt:
Aussen-T/F 126 14-05-2016 10:25:00 9.8 C 69 % 4.39 C
127 14-05-2016 10:30:00 9.8 C 68 % 4.18 C
128 14-05-2016 10:35:00 9.8 C 68 % 4.18 C
129 14-05-2016 10:40:00 9.8 C 67 % 3.97 C
130 14-05-2016 10:45:00 9.8 C 66 % 3.76 C
131 14-05-2016 10:50:00 9.9 C 65 % 3.64 C
132 14-05-2016 10:55:00 9.9 C 64 % 3.42 C
133 14-05-2016 11:00:00 10.1 C 63 % 3.39 C
134 14-05-2016 11:05:00 10.2 C 60 % 2.79 C
135 14-05-2016 11:10:00 10.3 C 61 % 3.12 C
136 14-05-2016 11:15:00 10.6 C 63 % 3.86 C
137 14-05-2016 11:20:00 10.8 C 60 % 3.36 C
138 14-05-2016 11:25:00 10.8 C 59 % 3.12 C
139 14-05-2016 11:30:00 10.8 C 61 % 3.59 C
140 14-05-2016 11:35:00 10.9 C 59 % 3.21 C
141 14-05-2016 11:40:00 11 C 59 % 3.31 C
142 14-05-2016 11:45:00 11.1 C 58 % 3.16 C
143 14-05-2016 11:50:00 11.2 C 57 % 3.01 C
144 14-05-2016 11:55:00 11.2 C 57 % 3.01 C
145 14-05-2016 12:00:00 11.1 C 55 % 2.41 C
146 14-05-2016 12:05:00 10.9 C 57 % 2.73 C
147 14-05-2016 12:10:00 11.1 C 59 % 3.4 C
148 14-05-2016 12:15:00 11.2 C 58 % 3.25 C
149 14-05-2016 12:20:00 11.3 C 59 % 3.59 C
150 14-05-2016 12:25:00 11.3 C 57 % 3.1 C
Sensor: Nr:Datum:Temp:Feuchte:Taupunkt:
Aussen-T/F 151 14-05-2016 12:30:00 11.3 C 58 % 3.35 C
152 14-05-2016 12:35:00 11.3 C 55 % 2.6 C
153 14-05-2016 12:40:00 11.3 C 57 % 3.1 C
154 14-05-2016 12:45:00 11.2 C 58 % 3.25 C
155 14-05-2016 12:50:00 11.3 C 59 % 3.59 C
156 14-05-2016 12:55:00 11.5 C 58 % 3.54 C
157 14-05-2016 13:00:00 11.6 C 58 % 3.63 C
158 14-05-2016 13:05:00 11.6 C 58 % 3.63 C
159 14-05-2016 13:10:00 11.5 C 56 % 3.04 C
160 14-05-2016 13:15:00 11.4 C 58 % 3.44 C
161 14-05-2016 13:20:00 11.6 C 58 % 3.63 C
162 14-05-2016 13:25:00 11.7 C 56 % 3.23 C
163 14-05-2016 13:30:00 11.8 C 57 % 3.57 C
164 14-05-2016 13:35:00 11.7 C 58 % 3.72 C
165 14-05-2016 13:40:00 11.7 C 58 % 3.72 C
166 14-05-2016 13:45:00 11.4 C 60 % 3.92 C
167 14-05-2016 13:50:00 11.3 C 58 % 3.35 C
168 14-05-2016 13:55:00 11.2 C 60 % 3.73 C
169 14-05-2016 14:00:00 11.2 C 61 % 3.97 C
170 14-05-2016 14:05:00 11.1 C 62 % 4.11 C
171 14-05-2016 14:10:00 11.1 C 63 % 4.33 C
172 14-05-2016 14:15:00 11.1 C 64 % 4.56 C
173 14-05-2016 14:20:00 11.2 C 63 % 4.43 C
174 14-05-2016 14:25:00 11.2 C 63 % 4.43 C
175 14-05-2016 14:30:00 11.3 C 63 % 4.52 C
Sensor: Nr:Datum:Temp:Feuchte:Taupunkt:
Aussen-T/F 176 14-05-2016 14:35:00 11.3 C 64 % 4.75 C
177 14-05-2016 14:40:00 11.3 C 63 % 4.52 C
178 14-05-2016 14:45:00 11.2 C 63 % 4.43 C
179 14-05-2016 14:50:00 11.2 C 62 % 4.2 C
180 14-05-2016 14:55:00 11.3 C 61 % 4.06 C
181 14-05-2016 15:00:00 11.6 C 59 % 3.87 C
182 14-05-2016 15:05:00 11.8 C 59 % 4.06 C
183 14-05-2016 15:10:00 11.9 C 57 % 3.66 C
184 14-05-2016 15:15:00 11.9 C 57 % 3.66 C
185 14-05-2016 15:20:00 11.9 C 59 % 4.15 C
186 14-05-2016 15:25:00 11.9 C 57 % 3.66 C
187 14-05-2016 15:30:00 12 C 58 % 4 C
188 14-05-2016 15:35:00 12.4 C 59 % 4.62 C
189 14-05-2016 15:40:00 12.9 C 56 % 4.35 C
190 14-05-2016 15:45:00 13.3 C 56 % 4.72 C
191 14-05-2016 15:50:00 13.3 C 52 % 3.66 C
192 14-05-2016 15:55:00 12.9 C 53 % 3.56 C
193 14-05-2016 16:00:00 12.6 C 54 % 3.55 C
194 14-05-2016 16:05:00 12.3 C 56 % 3.79 C
195 14-05-2016 16:10:00 12.3 C 56 % 3.79 C
196 14-05-2016 16:15:00 12.4 C 57 % 4.13 C
197 14-05-2016 16:20:00 12.4 C 58 % 4.38 C
198 14-05-2016 16:25:00 12.5 C 55 % 3.72 C
199 14-05-2016 16:30:00 12.3 C 55 % 3.53 C
200 14-05-2016 16:35:00 12.2 C 55 % 3.44 C
Sensor: Nr:Datum:Temp:Feuchte:Taupunkt:
Aussen-T/F 201 14-05-2016 16:40:00 12.2 C 56 % 3.69 C
202 14-05-2016 16:45:00 12.2 C 56 % 3.69 C
203 14-05-2016 16:50:00 12.3 C 56 % 3.79 C
204 14-05-2016 16:55:00 12.5 C 55 % 3.72 C
205 14-05-2016 17:00:00 12.4 C 53 % 3.1 C
206 14-05-2016 17:05:00 12.3 C 53 % 3.01 C
207 14-05-2016 17:10:00 12.2 C 54 % 3.18 C
208 14-05-2016 17:15:00 12.2 C 54 % 3.18 C
209 14-05-2016 17:20:00 12.3 C 53 % 3.01 C
210 14-05-2016 17:25:00 12.4 C 52 % 2.83 C
211 14-05-2016 17:30:00 12.3 C 53 % 3.01 C
212 14-05-2016 17:35:00 12.3 C 55 % 3.53 C
213 14-05-2016 17:40:00 12.3 C 54 % 3.27 C
214 14-05-2016 17:45:00 12.3 C 56 % 3.79 C
215 14-05-2016 17:50:00 12.3 C 54 % 3.27 C
216 14-05-2016 17:55:00 12.6 C 54 % 3.55 C
217 14-05-2016 18:00:00 12.8 C 53 % 3.47 C
218 14-05-2016 18:05:00 12.7 C 52 % 3.11 C
219 14-05-2016 18:10:00 12.5 C 54 % 3.46 C
220 14-05-2016 18:15:00 12.6 C 55 % 3.81 C
221 14-05-2016 18:20:00 12.7 C 52 % 3.11 C
222 14-05-2016 18:25:00 12.6 C 53 % 3.29 C
223 14-05-2016 18:30:00 12.4 C 51 % 2.56 C
224 14-05-2016 18:35:00 12.1 C 53 % 2.82 C
225 14-05-2016 18:40:00 11.9 C 54 % 2.9 C
Sensor: Nr:Datum:Temp:Feuchte:Taupunkt:
Aussen-T/F 226 14-05-2016 18:45:00 11.7 C 55 % 2.97 C
227 14-05-2016 18:50:00 11.7 C 56 % 3.23 C
228 14-05-2016 18:55:00 11.6 C 56 % 3.13 C
229 14-05-2016 19:00:00 11.6 C 57 % 3.38 C
230 14-05-2016 19:05:00 11.6 C 57 % 3.38 C
231 14-05-2016 19:10:00 11.5 C 58 % 3.54 C
232 14-05-2016 19:15:00 11.5 C 59 % 3.78 C
233 14-05-2016 19:20:00 11.4 C 55 % 2.69 C
234 14-05-2016 19:25:00 11.3 C 56 % 2.85 C
235 14-05-2016 19:30:00 11.3 C 57 % 3.1 C
236 14-05-2016 19:35:00 11.2 C 57 % 3.01 C
237 14-05-2016 19:40:00 11.2 C 58 % 3.25 C
238 14-05-2016 19:45:00 11.2 C 58 % 3.25 C
239 14-05-2016 19:50:00 11.1 C 59 % 3.4 C
240 14-05-2016 19:55:00 11.1 C 59 % 3.4 C
241 14-05-2016 20:00:00 11.1 C 60 % 3.64 C
242 14-05-2016 20:05:00 11.1 C 59 % 3.4 C
243 14-05-2016 20:10:00 11.2 C 60 % 3.73 C
244 14-05-2016 20:15:00 11.2 C 58 % 3.25 C
245 14-05-2016 20:20:00 11.2 C 57 % 3.01 C
246 14-05-2016 20:25:00 11.1 C 57 % 2.92 C
247 14-05-2016 20:30:00 11 C 57 % 2.82 C
248 14-05-2016 20:35:00 10.9 C 57 % 2.73 C
249 14-05-2016 20:40:00 10.8 C 58 % 2.88 C
250 14-05-2016 20:45:00 10.7 C 60 % 3.26 C
Sensor: Nr:Datum:Temp:Feuchte:Taupunkt:
Aussen-T/F 251 14-05-2016 20:50:00 10.5 C 59 % 2.84 C
252 14-05-2016 20:55:00 10.3 C 61 % 3.12 C
253 14-05-2016 21:00:00 10.2 C 61 % 3.03 C
254 14-05-2016 21:05:00 10.1 C 61 % 2.93 C
255 14-05-2016 21:10:00 9.9 C 62 % 2.97 C
256 14-05-2016 21:15:00 9.8 C 64 % 3.32 C
257 14-05-2016 21:20:00 9.7 C 66 % 3.67 C
258 14-05-2016 21:25:00 9.6 C 63 % 2.91 C
259 14-05-2016 21:30:00 9.5 C 63 % 2.82 C
260 14-05-2016 21:35:00 9.4 C 65 % 3.16 C
261 14-05-2016 21:40:00 9.3 C 64 % 2.85 C
262 14-05-2016 21:45:00 9.3 C 64 % 2.85 C
263 14-05-2016 21:50:00 9.2 C 64 % 2.76 C
264 14-05-2016 21:55:00 9.2 C 66 % 3.19 C
265 14-05-2016 22:00:00 9.1 C 65 % 2.88 C
266 14-05-2016 22:05:00 9 C 65 % 2.78 C
267 14-05-2016 22:10:00 8.9 C 67 % 3.12 C
268 14-05-2016 22:15:00 8.7 C 69 % 3.34 C
269 14-05-2016 22:20:00 8.5 C 70 % 3.35 C
270 14-05-2016 22:25:00 8.3 C 70 % 3.16 C
271 14-05-2016 22:30:00 8.2 C 69 % 2.86 C
272 14-05-2016 22:35:00 8.2 C 71 % 3.26 C
273 14-05-2016 22:40:00 8.1 C 71 % 3.17 C
274 14-05-2016 22:45:00 8 C 71 % 3.07 C
275 14-05-2016 22:50:00 7.9 C 72 % 3.17 C
Sensor: Nr:Datum:Temp:Feuchte:Taupunkt:
Aussen-T/F 276 14-05-2016 22:55:00 7.8 C 72 % 3.08 C
277 14-05-2016 23:00:00 7.8 C 72 % 3.08 C
278 14-05-2016 23:05:00 7.7 C 72 % 2.98 C
279 14-05-2016 23:10:00 7.7 C 73 % 3.18 C
280 14-05-2016 23:15:00 7.6 C 73 % 3.08 C
281 14-05-2016 23:20:00 7.6 C 70 % 2.49 C
282 14-05-2016 23:25:00 7.7 C 72 % 2.98 C
283 14-05-2016 23:30:00 7.7 C 70 % 2.58 C
284 14-05-2016 23:35:00 7.7 C 69 % 2.38 C
285 14-05-2016 23:40:00 7.8 C 68 % 2.27 C
286 14-05-2016 23:45:00 7.8 C 71 % 2.88 C
287 14-05-2016 23:50:00 7.8 C 70 % 2.68 C
288 14-05-2016 23:55:00 7.6 C 71 % 2.69 C

Legende:
   Min
   Max


Maximal/Minimal-Werte vom 14.05.2016 - 14.05.2016

Sensor Min Max Avg
Temp
(Aussen-T/F)
7.6 °C
14-05-2016  23:15:00
13.3 °C
14-05-2016  15:45:00
10.46 °C
Feuchte
(Aussen-T/F)
51 %
14-05-2016  18:30:00
96 %
14-05-2016  00:00:00
71.95 %
Taupunkt
(Aussen-T/F)
2.27 C
14-05-2016  23:40:00
10.98 C
14-05-2016  00:00:00
5.32 C

Die Daten stammen von einer Davis Vantage Pro 2 Wetter-Station und werden unter Linux mit der Software wview2wettercgi und aufbereitet. Alle Angaben erfolgen ohne Gewähr für ihre Vollständigkeit oder Richtigkeit.
Kontakt: Rainer Krienke krienke@uni-koblenz.de . Meine Webseiten an der Uni Koblenz oder privat.
Version: $Revision: 0.78 $